Time;durP1;ratioP1;P1;durP2;ratioP2;P2;SDS_P1;SDS_P2;PMS_P1;PMS_P2;Temp;Humidity;BMP_temperature;BMP_pressure;BME280_temperature;BME280_humidity;BME280_pressure;Samples;Min_cycle;Max_cycle;Signal;HPM_P1;HPM_P2
2021/05/18 00:02:17;;;;;;;1.70;1.60;;;11.60;1.00;;;;;;5071715;28;20180;-60
2021/05/18 00:04:43;;;;;;;1.57;1.37;;;11.60;1.00;;;;;;5081846;28;20788;-60
2021/05/18 00:07:13;;;;;;;1.80;1.43;;;11.50;1.00;;;;;;5069914;28;20238;-59
2021/05/18 00:12:24;;;;;;;1.60;1.50;;;11.40;1.00;;;;;;5066594;28;20461;-60
2021/05/18 00:14:49;;;;;;;1.60;1.50;;;11.40;1.00;;;;;;5067016;28;21280;-60
2021/05/18 00:17:15;;;;;;;1.50;1.40;;;11.40;1.00;;;;;;5063644;28;20192;-60
2021/05/18 00:19:41;;;;;;;1.30;1.20;;;11.30;1.00;;;;;;5070349;28;20192;-60
2021/05/18 00:22:06;;;;;;;1.40;1.30;;;11.30;1.00;;;;;;5066425;28;20191;-59
2021/05/18 00:24:32;;;;;;;3.53;1.30;;;11.40;1.00;;;;;;5080397;28;20194;-59
2021/05/18 00:27:02;;;;;;;1.30;1.20;;;11.50;1.00;;;;;;5081559;28;20230;-60
2021/05/18 00:29:28;;;;;;;1.50;1.40;;;11.50;1.00;;;;;;5072387;28;20651;-59
2021/05/18 00:31:53;;;;;;;1.40;1.30;;;11.60;1.00;;;;;;5067062;28;20459;-60
2021/05/18 00:34:19;;;;;;;1.37;1.30;;;11.60;1.00;;;;;;5068332;28;20181;-60
2021/05/18 00:36:44;;;;;;;1.60;1.50;;;11.70;1.00;;;;;;5053417;28;20206;-60
2021/05/18 00:39:10;;;;;;;1.30;1.20;;;11.70;1.00;;;;;;5065697;28;20915;-59
2021/05/18 00:41:35;;;;;;;1.30;1.20;;;11.70;1.00;;;;;;5062315;28;20254;-56
2021/05/18 00:44:02;;;;;;;1.80;1.20;;;11.70;1.00;;;;;;5076752;28;20803;-60
2021/05/18 00:46:29;;;;;;;1.50;1.40;;;11.80;1.00;;;;;;5078458;28;20181;-60
2021/05/18 00:48:57;;;;;;;1.30;1.20;;;11.80;1.00;;;;;;5067149;28;20457;-59
2021/05/18 00:51:27;;;;;;;1.40;1.30;;;11.80;1.00;;;;;;5071653;28;20467;-59
2021/05/18 00:53:55;;;;;;;1.77;1.30;;;11.80;1.00;;;;;;5083612;28;20781;-60
2021/05/18 00:58:58;;;;;;;1.47;1.37;;;11.90;1.00;;;;;;5068658;28;20438;-60
2021/05/18 01:01:23;;;;;;;1.77;1.43;;;12.00;1.00;;;;;;5068524;28;20889;-60
2021/05/18 01:03:51;;;;;;;1.53;1.40;;;12.00;1.00;;;;;;5068579;28;20443;-60
2021/05/18 01:06:28;;;;;;;1.53;1.43;;;12.10;1.00;;;;;;5069653;28;20173;-60
2021/05/18 01:09:13;;;;;;;1.40;1.30;;;12.10;1.00;;;;;;5065000;28;20781;-60
2021/05/18 01:11:47;;;;;;;1.27;1.20;;;12.00;1.00;;;;;;5078393;28;20847;-59
2021/05/18 01:14:17;;;;;;;1.47;1.37;;;11.90;1.00;;;;;;5055753;28;20823;-61
2021/05/18 01:16:51;;;;;;;1.30;1.20;;;11.90;1.00;;;;;;5068381;28;20447;-61
2021/05/18 01:19:22;;;;;;;1.40;1.30;;;11.80;1.00;;;;;;5068477;28;20440;-62
2021/05/18 01:21:48;;;;;;;1.33;1.23;;;11.80;1.00;;;;;;5069000;28;20905;-60
2021/05/18 01:24:15;;;;;;;1.80;1.33;;;11.80;1.00;;;;;;5068591;28;20552;-59
2021/05/18 01:26:41;;;;;;;1.50;1.40;;;11.80;1.00;;;;;;5069331;28;20530;-60
2021/05/18 01:29:08;;;;;;;1.40;1.30;;;11.80;1.00;;;;;;5068711;28;20518;-59
2021/05/18 01:31:34;;;;;;;1.37;1.37;;;11.80;1.00;;;;;;5069348;28;20667;-61
2021/05/18 01:34:01;;;;;;;1.60;1.50;;;11.80;1.00;;;;;;5068483;28;20435;-61
2021/05/18 01:36:27;;;;;;;2.10;1.53;;;11.80;1.00;;;;;;5064062;28;20489;-61
2021/05/18 01:44:07;;;;;;;1.70;1.60;;;11.90;1.00;;;;;;5064919;28;20438;-60
2021/05/18 01:46:33;;;;;;;1.67;1.57;;;12.00;1.00;;;;;;5068396;28;21085;-60
2021/05/18 01:49:08;;;;;;;1.50;1.40;;;12.00;1.00;;;;;;5067558;28;20427;-65
2021/05/18 01:51:45;;;;;;;1.60;1.50;;;12.10;1.00;;;;;;5067677;28;21019;-62
2021/05/18 01:54:14;;;;;;;2.30;2.10;;;12.20;1.00;;;;;;5068688;28;20422;-63
2021/05/18 01:57:05;;;;;;;1.97;1.77;;;12.20;1.00;;;;;;5068187;28;20434;-60
2021/05/18 01:59:32;;;;;;;2.40;2.00;;;12.20;1.00;;;;;;5055677;28;20419;-65
2021/05/18 02:02:02;;;;;;;2.23;2.03;;;12.40;1.00;;;;;;5067374;28;20509;-61
2021/05/18 02:04:35;;;;;;;1.83;1.73;;;12.40;1.00;;;;;;5068195;28;20423;-60
2021/05/18 02:07:10;;;;;;;2.40;1.90;;;12.50;1.00;;;;;;5067500;28;20478;-64
2021/05/18 02:09:36;;;;;;;3.37;2.20;;;12.60;1.00;;;;;;5073543;28;20469;-59
2021/05/18 02:12:03;;;;;;;2.67;2.47;;;12.60;1.00;;;;;;5075914;28;20463;-63
2021/05/18 02:14:30;;;;;;;2.70;2.50;;;12.60;1.00;;;;;;5071394;28;20436;-61
2021/05/18 02:17:12;;;;;;;2.43;2.23;;;12.60;1.00;;;;;;5075224;28;20810;-61
2021/05/18 02:24:38;;;;;;;2.30;2.10;;;12.60;1.00;;;;;;5072456;28;20518;-61
2021/05/18 02:25:11;;;;;;;2.60;2.40;;;12.60;1.00;;;;;;5071372;28;20525;-61
2021/05/18 02:27:37;;;;;;;3.40;2.77;;;12.70;1.00;;;;;;5072331;28;20492;-61
2021/05/18 02:30:05;;;;;;;3.20;3.00;;;12.60;1.00;;;;;;5071684;28;20435;-61
2021/05/18 02:32:31;;;;;;;3.03;2.73;;;12.60;1.00;;;;;;5072034;28;20216;-60
2021/05/18 02:34:57;;;;;;;2.70;2.50;;;12.60;1.00;;;;;;5071037;28;20435;-60
2021/05/18 02:37:22;;;;;;;2.47;2.30;;;12.60;1.00;;;;;;5072242;28;20422;-63
2021/05/18 02:39:48;;;;;;;2.87;2.67;;;12.60;1.00;;;;;;5071037;28;20268;-59
2021/05/18 02:42:14;;;;;;;3.23;2.90;;;12.60;1.00;;;;;;5071898;28;20192;-65
2021/05/18 02:44:45;;;;;;;3.47;2.90;;;12.60;1.00;;;;;;5071072;28;20655;-63
2021/05/18 02:49:55;;;;;;;9.60;3.80;;;12.60;1.00;;;;;;5071755;28;20940;-60
2021/05/18 02:52:21;;;;;;;3.40;3.10;;;12.70;1.00;;;;;;5070785;28;20550;-62
2021/05/18 02:54:52;;;;;;;3.00;2.80;;;12.60;1.00;;;;;;5070122;28;20239;-63
2021/05/18 02:57:42;;;;;;;3.13;2.90;;;12.60;1.00;;;;;;5071888;28;20490;-64
2021/05/18 03:00:12;;;;;;;4.10;3.70;;;12.60;1.00;;;;;;5070222;28;20463;-64
2021/05/18 03:02:38;;;;;;;4.13;3.70;;;12.60;1.00;;;;;;5070944;28;20446;-61
2021/05/18 03:05:04;;;;;;;4.13;3.80;;;12.60;1.00;;;;;;5070126;28;20427;-62
2021/05/18 03:07:29;;;;;;;4.07;3.57;;;12.50;1.00;;;;;;5071550;28;20932;-64
2021/05/18 03:09:55;;;;;;;4.30;3.90;;;12.50;1.00;;;;;;5078593;28;20418;-64
2021/05/18 03:12:21;;;;;;;4.30;3.90;;;12.50;1.00;;;;;;5072508;28;20272;-60
2021/05/18 03:14:47;;;;;;;4.53;4.10;;;12.60;1.00;;;;;;5081932;28;20617;-65
2021/05/18 03:17:12;;;;;;;4.80;4.10;;;12.50;1.00;;;;;;5076219;28;20208;-59
2021/05/18 03:19:38;;;;;;;4.50;4.10;;;12.50;1.00;;;;;;5080292;28;20496;-59
2021/05/18 03:22:03;;;;;;;5.10;4.70;;;12.60;1.00;;;;;;5073602;28;20188;-61
2021/05/18 03:24:29;;;;;;;5.10;4.60;;;12.50;1.00;;;;;;5086158;28;20624;-61
2021/05/18 03:26:55;;;;;;;4.90;4.10;;;12.50;1.00;;;;;;5076331;28;20196;-60
2021/05/18 03:29:33;;;;;;;4.83;4.30;;;12.60;1.00;;;;;;5068925;28;20533;-60
2021/05/18 03:34:43;;;;;;;5.63;4.90;;;12.40;1.00;;;;;;5088074;28;20540;-61
2021/05/18 03:39:48;;;;;;;5.73;5.17;;;12.30;4.30;;;;;;5087996;28;20434;-61
2021/05/18 03:42:18;;;;;;;5.77;5.27;;;12.20;9.50;;;;;;5090481;28;20480;-61
2021/05/18 03:44:55;;;;;;;6.17;5.30;;;12.10;14.80;;;;;;5075026;28;20457;-61
2021/05/18 04:03:48;;;;;;;6.23;5.63;;;11.80;60.80;;;;;;5077231;28;20526;-61
2021/05/18 04:17:10;;;;;;;5.70;4.90;;;11.40;99.90;;;;;;5071329;28;20475;-59
2021/05/18 04:19:43;;;;;;;5.80;5.23;;;11.40;99.90;;;;;;5075878;28;20434;-59
2021/05/18 04:41:37;;;;;;;8.63;7.73;;;11.50;99.90;;;;;;5062026;28;21581;-59
2021/05/18 04:50:24;;;;;;;6.90;6.30;;;11.60;99.90;;;;;;5076386;28;20459;-54
2021/05/18 04:52:25;;;;;;;6.60;6.00;;;11.60;99.90;;;;;;5069029;28;20677;-58
2021/05/18 05:00:24;;;;;;;8.57;7.60;;;11.50;99.90;;;;;;5069082;28;20552;-60
2021/05/18 05:03:08;;;;;;;8.07;7.27;;;11.50;99.90;;;;;;5078253;28;20844;-60
2021/05/18 05:08:25;;;;;;;11.80;8.53;;;11.50;99.90;;;;;;5055553;28;20906;-60
2021/05/18 05:16:14;;;;;;;13.23;10.43;;;11.40;99.90;;;;;;5033626;28;21311;-60
2021/05/18 05:18:39;;;;;;;12.00;10.80;;;11.40;99.90;;;;;;5082990;28;20407;-60
2021/05/18 05:21:05;;;;;;;11.70;10.50;;;11.50;99.90;;;;;;5068422;28;20177;-61
2021/05/18 05:23:30;;;;;;;13.07;10.90;;;11.50;99.90;;;;;;5068693;28;20181;-61
2021/05/18 05:25:56;;;;;;;13.53;12.13;;;11.50;99.90;;;;;;5082118;28;21504;-61
2021/05/18 05:28:22;;;;;;;14.00;12.53;;;11.60;99.90;;;;;;5069301;28;20184;-61
2021/05/18 05:30:47;;;;;;;14.53;11.90;;;11.60;99.90;;;;;;5082863;28;20185;-61
2021/05/18 05:33:13;;;;;;;13.70;12.17;;;11.60;99.90;;;;;;5083632;28;20242;-61
2021/05/18 05:35:38;;;;;;;17.27;12.20;;;11.60;99.90;;;;;;5082260;28;20211;-62
2021/05/18 05:38:06;;;;;;;14.77;12.10;;;11.70;99.90;;;;;;5088354;28;20176;-61
2021/05/18 05:40:32;;;;;;;16.50;13.10;;;11.80;99.90;;;;;;5081509;28;20208;-61
2021/05/18 05:42:58;;;;;;;14.57;12.17;;;11.80;99.90;;;;;;5085507;28;20426;-60
2021/05/18 05:45:23;;;;;;;12.97;11.00;;;11.90;99.90;;;;;;5070617;28;20523;-62
2021/05/18 05:47:50;;;;;;;14.17;11.37;;;11.80;99.90;;;;;;5084128;28;20192;-61
2021/05/18 05:50:15;;;;;;;12.00;10.50;;;11.90;99.90;;;;;;5068553;28;20177;-60
2021/05/18 05:52:41;;;;;;;13.20;10.70;;;12.00;99.90;;;;;;5067136;28;20455;-61
2021/05/18 05:55:09;;;;;;;11.73;10.50;;;12.10;99.90;;;;;;5068632;28;20165;-61
2021/05/18 05:57:35;;;;;;;13.50;11.20;;;12.10;99.90;;;;;;5089564;28;20149;-60
2021/05/18 06:00:04;;;;;;;12.40;11.00;;;12.20;99.90;;;;;;5089213;28;20796;-61
2021/05/18 06:02:30;;;;;;;10.90;9.60;;;12.30;99.90;;;;;;5087897;28;20415;-61
2021/05/18 06:04:55;;;;;;;12.80;11.00;;;12.40;99.90;;;;;;5064952;28;20481;-62
2021/05/18 06:07:22;;;;;;;11.70;10.50;;;12.40;99.90;;;;;;5068408;28;20636;-62
2021/05/18 06:09:48;;;;;;;11.60;10.20;;;12.50;99.90;;;;;;5068565;28;20631;-62
2021/05/18 06:12:31;;;;;;;11.50;10.40;;;12.50;99.90;;;;;;5068164;28;20487;-62
2021/05/18 06:42:18;;;;;;;11.90;10.53;;;12.40;99.90;;;;;;5076716;28;20453;-60
2021/05/18 06:50:09;;;;;;;12.90;10.80;;;12.60;99.90;;;;;;5083990;28;20411;-62
2021/05/18 06:52:35;;;;;;;11.83;10.30;;;12.60;98.00;;;;;;5070493;28;20497;-62
2021/05/18 06:55:01;;;;;;;11.30;10.20;;;12.70;91.70;;;;;;5083476;28;20894;-59
2021/05/18 06:57:28;;;;;;;11.30;10.27;;;12.60;76.30;;;;;;5067848;28;20185;-60
2021/05/18 07:00:08;;;;;;;11.77;10.57;;;12.60;92.10;;;;;;5081998;28;20231;-60
2021/05/18 07:02:34;;;;;;;11.60;10.40;;;12.60;95.10;;;;;;5071101;28;20498;-59
2021/05/18 07:05:00;;;;;;;11.67;10.33;;;12.60;69.10;;;;;;5083286;28;20514;-60
2021/05/18 07:07:32;;;;;;;10.10;9.10;;;12.50;72.40;;;;;;5086736;28;20181;-59
2021/05/18 07:09:58;;;;;;;10.37;9.20;;;12.60;63.80;;;;;;5074056;28;20824;-59
2021/05/18 07:12:23;;;;;;;11.23;9.33;;;12.60;70.50;;;;;;5069244;28;20466;-59
2021/05/18 07:14:49;;;;;;;10.43;9.43;;;12.60;73.90;;;;;;5070513;28;20681;-59
2021/05/18 07:17:14;;;;;;;10.00;9.00;;;12.60;63.30;;;;;;5084585;28;20180;-59
2021/05/18 07:19:40;;;;;;;10.73;9.57;;;12.60;64.20;;;;;;5084409;28;20230;-53
2021/05/18 07:22:07;;;;;;;8.10;7.40;;;12.70;56.30;;;;;;5078373;28;20196;-60
2021/05/18 07:24:32;;;;;;;10.83;7.40;;;12.70;45.90;;;;;;5080305;28;20188;-59
2021/05/18 07:26:59;;;;;;;7.90;7.10;;;12.80;59.10;;;;;;5081332;28;20528;-62
2021/05/18 07:29:24;;;;;;;9.13;8.10;;;12.80;82.20;;;;;;5086825;28;20239;-58
2021/05/18 07:31:50;;;;;;;9.90;8.93;;;12.80;93.60;;;;;;5084589;28;20455;-61
2021/05/18 07:34:16;;;;;;;10.37;9.23;;;12.70;99.90;;;;;;5080090;28;20811;-62
2021/05/18 07:36:42;;;;;;;9.43;8.53;;;12.70;99.90;;;;;;5082187;28;20208;-62
2021/05/18 07:39:07;;;;;;;9.80;8.80;;;12.70;99.90;;;;;;5075259;28;20653;-60
2021/05/18 07:41:33;;;;;;;9.07;8.17;;;12.80;95.40;;;;;;5087661;28;20411;-62
2021/05/18 07:44:02;;;;;;;9.97;9.07;;;12.80;90.00;;;;;;5087821;28;20168;-56
2021/05/18 07:46:28;;;;;;;10.47;9.37;;;12.80;99.90;;;;;;5090042;28;20176;-62
2021/05/18 07:59:38;;;;;;;7.53;6.73;;;13.40;51.50;;;;;;5068097;28;20507;-59
2021/05/18 08:07:34;;;;;;;8.63;7.83;;;13.90;27.00;;;;;;5080721;28;20468;-58
2021/05/18 08:12:32;;;;;;;8.30;7.60;;;13.90;8.10;;;;;;5085022;28;20468;-59
2021/05/18 08:17:45;;;;;;;9.07;7.10;;;13.80;20.40;;;;;;5075697;28;20271;-59
2021/05/18 08:46:55;;;;;;;8.27;7.47;;;14.10;1.00;;;;;;5090184;28;20418;-60
2021/05/18 09:49:21;;;;;;;5.97;5.47;;;20.50;99.90;;;;;;5073985;28;20901;-60
2021/05/18 10:35:33;;;;;;;7.30;6.80;;;18.10;99.90;;;;;;5067454;28;20477;-60
2021/05/18 10:38:03;;;;;;;7.93;6.90;;;18.00;99.90;;;;;;5070685;28;20416;-60
2021/05/18 10:40:30;;;;;;;7.30;6.70;;;17.80;99.90;;;;;;5075983;28;20783;-61
2021/05/18 10:43:04;;;;;;;6.60;6.10;;;17.70;99.90;;;;;;5071915;28;20419;-61
2021/05/18 10:46:06;;;;;;;6.80;6.30;;;17.70;1.00;;;;;;5070417;28;21011;-61
2021/05/18 10:48:34;;;;;;;7.03;6.53;;;17.90;99.90;;;;;;5071772;28;20437;-61
2021/05/18 10:51:22;;;;;;;6.80;6.20;;;17.90;99.90;;;;;;5051955;28;20485;-61
2021/05/18 10:54:12;;;;;;;6.63;6.03;;;19.00;99.90;;;;;;5066889;28;20463;-61
2021/05/18 10:56:56;;;;;;;6.60;6.10;;;19.70;99.90;;;;;;5072210;28;20865;-60
2021/05/18 10:59:23;;;;;;;6.10;5.60;;;20.00;99.90;;;;;;5071890;28;20395;-61
2021/05/18 11:01:49;;;;;;;6.90;6.30;;;20.00;99.90;;;;;;5076599;28;20501;-61
2021/05/18 11:04:15;;;;;;;7.30;6.70;;;19.80;99.90;;;;;;5077299;28;20451;-61
2021/05/18 11:06:54;;;;;;;7.10;6.40;;;19.70;99.90;;;;;;5071644;28;20814;-61
2021/05/18 11:09:20;;;;;;;6.93;6.33;;;19.40;99.90;;;;;;5068170;28;20600;-61
2021/05/18 11:11:47;;;;;;;6.57;5.37;;;19.60;99.90;;;;;;5071567;28;20496;-61
2021/05/18 11:14:14;;;;;;;5.87;5.37;;;20.60;99.90;;;;;;5070974;28;20430;-62
2021/05/18 11:16:40;;;;;;;7.07;6.40;;;21.90;99.90;;;;;;5071200;28;20486;-58
2021/05/18 11:19:12;;;;;;;6.00;5.53;;;23.00;99.90;;;;;;5070875;28;20511;-60
2021/05/18 11:21:42;;;;;;;6.77;6.27;;;24.10;99.90;;;;;;5071487;28;20248;-60
2021/05/18 11:24:12;;;;;;;6.10;5.70;;;24.20;99.90;;;;;;5070975;28;20426;-61
2021/05/18 11:26:48;;;;;;;6.87;6.27;;;24.30;99.90;;;;;;5070517;28;20430;-61
2021/05/18 11:29:14;;;;;;;6.90;6.40;;;24.10;99.90;;;;;;5071454;28;20387;-60
2021/05/18 11:31:40;;;;;;;5.67;5.27;;;24.20;99.90;;;;;;5069915;28;20415;-60
2021/05/18 11:34:06;;;;;;;5.83;5.50;;;24.30;99.90;;;;;;5071340;28;20430;-60
2021/05/18 11:36:35;;;;;;;5.63;5.20;;;24.30;99.90;;;;;;5071290;28;20416;-60
2021/05/18 11:39:08;;;;;;;6.27;5.77;;;24.60;99.90;;;;;;5071349;28;20558;-60
2021/05/18 11:41:37;;;;;;;5.87;5.33;;;24.30;99.90;;;;;;5069676;28;20426;-59
2021/05/18 11:44:04;;;;;;;5.70;5.30;;;24.30;99.90;;;;;;5070710;28;20430;-59
2021/05/18 11:46:33;;;;;;;6.90;5.53;;;24.10;99.90;;;;;;5070149;28;20430;-60
2021/05/18 11:49:05;;;;;;;6.50;5.97;;;24.10;99.90;;;;;;5070423;28;20454;-60
2021/05/18 11:51:44;;;;;;;6.50;6.00;;;24.40;99.90;;;;;;5056662;28;20981;-61
2021/05/18 11:54:12;;;;;;;7.30;6.70;;;24.70;99.90;;;;;;5050471;28;20416;-60
2021/05/18 11:56:39;;;;;;;7.20;6.60;;;25.40;99.90;;;;;;5050731;28;20457;-60
2021/05/18 11:59:10;;;;;;;6.93;6.33;;;25.90;99.90;;;;;;5050896;28;20419;-60
2021/05/18 12:01:53;;;;;;;8.07;7.47;;;26.30;99.90;;;;;;5063291;28;20521;-60
2021/05/18 12:04:20;;;;;;;7.93;7.23;;;25.30;99.90;;;;;;5080175;28;20418;-60
2021/05/18 12:07:10;;;;;;;8.10;7.50;;;23.90;99.90;;;;;;5075367;28;20815;-60
2021/05/18 12:09:38;;;;;;;8.27;7.63;;;22.20;99.90;;;;;;5056362;28;20561;-60
2021/05/18 12:12:09;;;;;;;8.10;7.50;;;20.50;99.90;;;;;;5070064;28;20990;-60
2021/05/18 12:14:49;;;;;;;7.23;6.63;;;20.10;99.90;;;;;;5073239;28;20420;-60
2021/05/18 12:17:25;;;;;;;8.83;7.93;;;21.00;99.90;;;;;;5057520;28;20429;-60
2021/05/18 12:19:50;;;;;;;8.30;7.63;;;21.50;99.90;;;;;;5069874;28;20418;-60
2021/05/18 12:22:16;;;;;;;8.27;7.63;;;21.40;99.90;;;;;;5080514;28;20452;-60
2021/05/18 12:24:43;;;;;;;8.50;7.80;;;20.70;99.90;;;;;;5070037;28;20665;-60
2021/05/18 12:27:09;;;;;;;9.30;8.40;;;20.10;99.90;;;;;;5087843;28;20502;-60
2021/05/18 12:29:41;;;;;;;9.70;8.90;;;19.60;99.90;;;;;;5079257;28;20415;-60
2021/05/18 12:32:26;;;;;;;9.67;8.80;;;19.00;99.90;;;;;;5087619;28;20469;-60
2021/05/18 12:35:17;;;;;;;8.47;7.67;;;18.50;99.90;;;;;;5076606;28;20418;-60
2021/05/18 12:37:45;;;;;;;6.93;6.43;;;18.10;99.90;;;;;;5075604;28;20434;-53
2021/05/18 12:40:26;;;;;;;6.97;6.37;;;18.20;99.90;;;;;;5069016;28;20415;-59
2021/05/18 12:42:53;;;;;;;6.50;6.00;;;18.50;99.90;;;;;;5065710;28;20861;-59
2021/05/18 12:45:24;;;;;;;6.30;5.80;;;18.30;99.90;;;;;;5070029;28;20960;-59
2021/05/18 12:47:55;;;;;;;6.47;6.00;;;18.30;99.90;;;;;;5068491;28;20453;-60
2021/05/18 12:50:21;;;;;;;9.73;7.10;;;18.50;99.90;;;;;;5082397;28;20816;-60
2021/05/18 12:52:52;;;;;;;6.90;6.40;;;18.80;99.90;;;;;;5074981;28;20456;-60
2021/05/18 12:55:25;;;;;;;6.90;6.20;;;19.70;99.90;;;;;;5076915;28;20415;-60
2021/05/18 12:57:56;;;;;;;6.17;5.57;;;20.10;99.90;;;;;;5089513;28;20413;-59
2021/05/18 13:00:31;;;;;;;3.63;3.30;;;20.00;99.90;;;;;;5088691;28;20536;-60
2021/05/18 13:03:09;;;;;;;4.10;3.80;;;19.20;99.90;;;;;;5074918;28;20454;-59
2021/05/18 13:05:34;;;;;;;4.73;4.43;;;18.60;99.90;;;;;;5083559;28;20425;-60
2021/05/18 13:08:08;;;;;;;4.70;4.40;;;17.90;99.90;;;;;;5073036;28;21090;-60
2021/05/18 13:13:44;;;;;;;4.83;4.47;;;17.50;99.90;;;;;;5071755;28;20469;-59
2021/05/18 13:16:18;;;;;;;5.30;4.90;;;17.20;99.90;;;;;;5066517;28;20529;-61
2021/05/18 13:18:59;;;;;;;6.00;5.43;;;17.10;99.90;;;;;;5068918;28;20987;-60
2021/05/18 13:21:38;;;;;;;5.50;4.80;;;17.10;99.90;;;;;;5078057;28;20424;-60
2021/05/18 13:26:35;;;;;;;4.97;4.57;;;17.50;99.90;;;;;;5070436;28;20943;-60
2021/05/18 13:29:15;;;;;;;4.80;4.37;;;18.10;99.90;;;;;;5068864;28;20411;-60
2021/05/18 13:31:42;;;;;;;4.70;4.33;;;19.00;99.90;;;;;;5085407;28;20420;-61
2021/05/18 13:34:08;;;;;;;5.00;4.70;;;20.10;99.90;;;;;;5068454;28;20477;-61
2021/05/18 13:36:35;;;;;;;5.87;5.30;;;21.30;99.90;;;;;;5078135;28;20920;-59
2021/05/18 13:39:06;;;;;;;5.90;5.40;;;22.60;99.90;;;;;;5068704;28;20459;-60
2021/05/18 13:41:33;;;;;;;5.00;4.60;;;23.60;99.90;;;;;;5082082;28;20408;-60
2021/05/18 13:43:58;;;;;;;5.33;4.97;;;23.80;99.90;;;;;;5062839;28;20515;-60
2021/05/18 13:46:24;;;;;;;4.97;4.57;;;24.00;99.90;;;;;;5067589;28;20985;-61
2021/05/18 13:48:49;;;;;;;5.60;5.20;;;24.50;99.90;;;;;;5068464;28;20173;-61
2021/05/18 13:51:16;;;;;;;6.00;5.50;;;25.20;99.90;;;;;;5077759;28;20208;-61
2021/05/18 13:53:42;;;;;;;6.73;6.10;;;25.70;99.90;;;;;;5088530;28;20241;-61
2021/05/18 13:56:11;;;;;;;5.67;5.17;;;25.60;99.90;;;;;;5088453;28;20418;-61
2021/05/18 13:58:37;;;;;;;6.40;6.00;;;25.40;99.90;;;;;;5070525;28;20443;-61
2021/05/18 14:01:05;;;;;;;6.60;6.00;;;25.10;99.90;;;;;;5067691;28;20485;-60
2021/05/18 14:03:31;;;;;;;6.60;5.40;;;25.30;99.90;;;;;;5075918;28;20434;-62
2021/05/18 14:05:56;;;;;;;6.20;5.70;;;25.40;99.90;;;;;;5071829;28;20518;-61
2021/05/18 14:08:36;;;;;;;8.20;7.40;;;25.90;99.90;;;;;;5068309;28;20628;-59
2021/05/18 14:11:21;;;;;;;7.30;6.80;;;26.70;99.90;;;;;;5077634;28;20217;-62
2021/05/18 14:13:55;;;;;;;6.80;6.30;;;26.50;99.90;;;;;;5080415;28;20464;-60
2021/05/18 14:16:22;;;;;;;6.30;5.90;;;26.10;99.90;;;;;;5071747;28;20452;-60
2021/05/18 14:18:53;;;;;;;6.87;6.27;;;25.90;99.90;;;;;;5092009;28;20412;-60
2021/05/18 14:21:20;;;;;;;6.47;5.97;;;25.40;99.90;;;;;;5083848;28;20434;-61
2021/05/18 14:26:12;;;;;;;7.20;6.73;;;25.10;99.90;;;;;;5074448;28;20435;-60
2021/05/18 14:28:38;;;;;;;7.47;6.70;;;25.70;99.90;;;;;;5074328;28;20445;-60
2021/05/18 14:31:06;;;;;;;7.10;6.60;;;25.90;99.90;;;;;;5073576;28;20796;-60
2021/05/18 14:33:33;;;;;;;6.20;5.80;;;26.20;99.90;;;;;;5074569;28;20447;-60
2021/05/18 14:35:58;;;;;;;6.20;5.80;;;26.10;99.90;;;;;;5074529;28;20423;-60
2021/05/18 14:38:25;;;;;;;7.90;7.03;;;25.70;99.90;;;;;;5074463;28;20411;-60
2021/05/18 14:56:34;;;;;;;6.60;6.10;;;22.50;99.90;;;;;;5072342;28;20427;-60
2021/05/18 14:59:00;;;;;;;7.10;6.60;;;22.00;99.90;;;;;;5078289;28;20457;-60
2021/05/18 15:01:25;;;;;;;6.60;6.00;;;21.60;99.90;;;;;;5087039;28;20704;-61
2021/05/18 15:03:51;;;;;;;6.50;6.10;;;21.50;99.90;;;;;;5077144;28;20221;-60
2021/05/18 15:06:16;;;;;;;7.50;6.90;;;21.30;99.90;;;;;;5084205;28;20203;-60
2021/05/18 15:08:42;;;;;;;9.37;6.87;;;21.30;99.90;;;;;;5075340;28;20195;-58
2021/05/18 15:11:08;;;;;;;7.07;6.57;;;21.20;99.90;;;;;;5094644;28;20184;-59
2021/05/18 15:13:35;;;;;;;6.93;6.40;;;21.10;99.90;;;;;;5092911;28;20690;-60
2021/05/18 15:16:01;;;;;;;6.90;6.40;;;21.30;99.90;;;;;;5073942;28;20437;-60
2021/05/18 15:18:29;;;;;;;6.70;6.20;;;21.50;99.90;;;;;;5073320;28;20438;-60
2021/05/18 15:20:55;;;;;;;5.27;4.87;;;22.00;99.90;;;;;;5069273;28;20442;-59
2021/05/18 15:23:21;;;;;;;6.67;6.27;;;22.10;99.90;;;;;;5073547;28;20439;-61
2021/05/18 15:25:46;;;;;;;6.00;5.47;;;22.50;99.90;;;;;;5073708;28;20196;-59
2021/05/18 15:28:12;;;;;;;6.07;5.67;;;23.10;99.90;;;;;;5070123;28;20525;-60
2021/05/18 15:30:37;;;;;;;5.80;5.40;;;23.30;99.90;;;;;;5070359;28;20215;-60
2021/05/18 15:33:03;;;;;;;6.10;5.60;;;23.50;99.90;;;;;;5061161;28;20448;-59
2021/05/18 15:35:28;;;;;;;5.67;5.27;;;23.80;99.90;;;;;;5070966;28;20181;-60
2021/05/18 15:37:54;;;;;;;6.13;5.73;;;23.70;99.90;;;;;;5069283;28;20769;-60
2021/05/18 15:40:20;;;;;;;6.10;5.50;;;23.70;99.90;;;;;;5069778;28;20206;-60
2021/05/18 15:42:45;;;;;;;6.17;5.63;;;23.80;99.90;;;;;;5070263;28;20261;-59
2021/05/18 15:45:11;;;;;;;6.30;5.90;;;24.20;99.90;;;;;;5064104;28;20227;-60
2021/05/18 15:47:37;;;;;;;7.03;6.37;;;24.10;99.90;;;;;;5075257;28;20971;-60
2021/05/18 15:50:05;;;;;;;5.40;5.10;;;23.50;99.90;;;;;;5069676;28;20431;-60
2021/05/18 15:52:30;;;;;;;6.97;6.47;;;23.30;99.90;;;;;;5083824;28;20204;-60
2021/05/18 15:54:56;;;;;;;7.13;6.53;;;22.90;99.90;;;;;;5085163;28;20449;-60
2021/05/18 15:57:21;;;;;;;6.90;6.30;;;22.30;99.90;;;;;;5066616;28;20189;-63
2021/05/18 15:59:50;;;;;;;7.77;7.07;;;21.80;99.90;;;;;;5070121;28;20232;-62
2021/05/18 16:02:17;;;;;;;7.80;7.00;;;21.30;99.90;;;;;;5074069;28;20208;-62
2021/05/18 16:04:43;;;;;;;7.00;6.53;;;21.00;99.90;;;;;;5069739;28;20420;-62
2021/05/18 16:07:12;;;;;;;7.07;6.40;;;21.00;99.90;;;;;;5069470;28;21015;-62
2021/05/18 16:09:38;;;;;;;6.93;6.47;;;21.10;99.90;;;;;;5072771;28;20976;-63
2021/05/18 16:12:06;;;;;;;6.87;6.37;;;21.30;99.90;;;;;;5068410;28;20494;-63
2021/05/18 16:14:32;;;;;;;7.50;6.90;;;21.10;99.90;;;;;;5075828;28;20197;-62
2021/05/18 16:16:57;;;;;;;7.07;6.57;;;20.80;99.90;;;;;;5072476;28;20438;-63
2021/05/18 16:19:23;;;;;;;7.47;6.87;;;20.70;99.90;;;;;;5073925;28;20487;-62
2021/05/18 16:21:50;;;;;;;7.50;6.90;;;20.50;99.90;;;;;;5074291;28;20619;-63
2021/05/18 16:24:16;;;;;;;7.63;7.00;;;20.20;99.90;;;;;;5080555;28;20173;-63
2021/05/18 16:26:42;;;;;;;7.30;6.80;;;19.90;99.90;;;;;;5069195;28;20499;-62
2021/05/18 16:29:08;;;;;;;6.90;6.40;;;19.80;99.90;;;;;;5083991;28;20506;-62
2021/05/18 16:31:33;;;;;;;7.50;7.00;;;19.70;99.90;;;;;;5070077;28;21073;-63
2021/05/18 16:33:59;;;;;;;7.20;6.50;;;19.60;99.90;;;;;;5068412;28;20239;-63
2021/05/18 16:36:25;;;;;;;6.40;6.00;;;19.70;99.90;;;;;;5067274;28;20224;-62
2021/05/18 16:38:51;;;;;;;6.37;6.00;;;19.70;99.90;;;;;;5063587;28;20556;-63
2021/05/18 16:41:17;;;;;;;6.90;5.90;;;20.20;99.90;;;;;;5067123;28;20461;-63
2021/05/18 16:43:45;;;;;;;6.00;5.50;;;20.60;99.90;;;;;;5072798;28;20252;-63
2021/05/18 16:46:12;;;;;;;6.50;5.90;;;20.80;99.90;;;;;;5069248;28;20434;-63
2021/05/18 16:48:37;;;;;;;6.57;5.87;;;21.10;99.90;;;;;;5067156;28;20625;-63
2021/05/18 16:51:05;;;;;;;5.97;5.57;;;21.50;99.90;;;;;;5067100;28;20544;-62
2021/05/18 16:53:32;;;;;;;5.50;5.20;;;21.70;99.90;;;;;;5065774;28;20201;-60
2021/05/18 16:55:58;;;;;;;5.97;5.47;;;21.90;99.90;;;;;;5062397;28;20431;-61
2021/05/18 16:58:24;;;;;;;5.10;4.67;;;22.40;99.90;;;;;;5068331;28;20427;-62
2021/05/18 17:00:49;;;;;;;4.40;4.10;;;22.50;99.90;;;;;;5067863;28;20475;-64
2021/05/18 17:03:15;;;;;;;4.07;3.87;;;22.50;99.90;;;;;;5067315;28;20263;-63
2021/05/18 17:05:41;;;;;;;4.20;4.00;;;21.90;99.90;;;;;;5067850;28;20187;-63
2021/05/18 17:08:07;;;;;;;3.70;3.50;;;21.40;99.90;;;;;;5067809;28;20707;-62
2021/05/18 17:10:36;;;;;;;4.73;4.43;;;20.60;99.90;;;;;;5066501;28;21195;-65
2021/05/18 17:13:02;;;;;;;4.90;4.50;;;20.20;99.90;;;;;;5068101;28;20208;-63
2021/05/18 17:15:28;;;;;;;5.63;5.23;;;19.80;99.90;;;;;;5067652;28;20477;-61
2021/05/18 17:17:55;;;;;;;6.07;5.67;;;19.30;99.90;;;;;;5065972;28;20439;-64
2021/05/18 17:20:22;;;;;;;5.80;5.40;;;18.70;99.90;;;;;;5069411;28;20430;-65
2021/05/18 17:22:47;;;;;;;6.40;6.00;;;18.30;99.90;;;;;;5065573;28;21296;-64
2021/05/18 17:25:14;;;;;;;5.87;5.47;;;18.00;99.90;;;;;;5065955;28;20470;-60
2021/05/18 17:27:40;;;;;;;5.67;5.37;;;17.70;99.90;;;;;;5070329;28;20168;-63
2021/05/18 17:30:11;;;;;;;6.27;5.70;;;17.40;99.90;;;;;;5066050;28;20908;-61
2021/05/18 17:32:36;;;;;;;5.40;4.90;;;17.30;99.90;;;;;;5061022;28;20552;-64
2021/05/18 17:35:02;;;;;;;5.10;4.80;;;17.10;99.90;;;;;;5058891;28;20479;-63
2021/05/18 17:37:28;;;;;;;4.83;4.57;;;16.70;99.90;;;;;;5069209;28;20187;-63
2021/05/18 17:39:54;;;;;;;4.50;4.20;;;16.30;99.90;;;;;;5068915;28;20497;-64
2021/05/18 17:42:19;;;;;;;4.87;4.57;;;15.80;1.00;;;;;;5077984;28;20204;-63
2021/05/18 17:44:48;;;;;;;6.73;4.33;;;15.30;1.00;;;;;;5066854;28;20184;-64
2021/05/18 17:47:14;;;;;;;5.10;4.70;;;15.10;1.00;;;;;;5070102;28;20177;-64
2021/05/18 17:49:40;;;;;;;4.27;3.97;;;14.70;1.00;;;;;;5071706;28;20445;-63
2021/05/18 17:52:08;;;;;;;4.30;4.00;;;14.30;1.00;;;;;;5071775;28;20205;-63